Time;durP1;ratioP1;P1;durP2;ratioP2;P2;SDS_P1;SDS_P2;PMS_P1;PMS_P2;Temp;Humidity;BMP_temperature;BMP_pressure;BME280_temperature;BME280_humidity;BME280_pressure;Samples;Min_cycle;Max_cycle;Signal;HPM_P1;HPM_P2
2021/10/14 00:01:29;;;;;;;13.13;3.38;;;;;;;;;;5013907;28;20061;-71
2021/10/14 00:03:56;;;;;;;17.60;4.10;;;;;;;;;;5013920;28;20164;-71
2021/10/14 00:06:24;;;;;;;20.65;3.45;;;;;;;;;;5013671;28;20056;-71
2021/10/14 00:08:51;;;;;;;18.92;3.60;;;;;;;;;;5013835;28;20057;-71
2021/10/14 00:11:19;;;;;;;15.43;2.80;;;;;;;;;;5013229;28;20092;-71
2021/10/14 00:13:49;;;;;;;20.02;3.28;;;;;;;;;;5013695;28;20038;-72
2021/10/14 00:16:16;;;;;;;18.33;3.47;;;;;;;;;;5013319;28;20067;-72
2021/10/14 00:18:44;;;;;;;21.02;4.55;;;;;;;;;;5013510;28;20136;-72
2021/10/14 00:21:12;;;;;;;12.40;2.63;;;;;;;;;;5013248;28;20049;-72
2021/10/14 00:23:39;;;;;;;14.98;2.50;;;;;;;;;;5013360;28;20046;-72
2021/10/14 00:26:07;;;;;;;13.30;2.50;;;;;;;;;;5013559;28;20041;-72
2021/10/14 00:28:34;;;;;;;12.60;1.95;;;;;;;;;;5012393;28;20045;-72
2021/10/14 00:31:02;;;;;;;10.85;2.10;;;;;;;;;;5013382;28;20133;-72
2021/10/14 00:33:30;;;;;;;7.55;1.95;;;;;;;;;;5010839;28;20041;-74
2021/10/14 00:35:57;;;;;;;7.85;2.22;;;;;;;;;;5011757;28;20056;-73
2021/10/14 00:38:25;;;;;;;9.85;1.90;;;;;;;;;;5013201;28;20443;-72
2021/10/14 00:40:52;;;;;;;8.38;1.95;;;;;;;;;;5012972;28;20549;-73
2021/10/14 00:43:20;;;;;;;6.05;1.83;;;;;;;;;;5013219;28;20467;-73
2021/10/14 00:45:47;;;;;;;6.18;1.92;;;;;;;;;;5013439;28;20042;-72
2021/10/14 00:48:15;;;;;;;7.57;1.90;;;;;;;;;;5013563;28;20120;-72
2021/10/14 00:50:42;;;;;;;6.35;1.70;;;;;;;;;;5013083;28;20034;-72
2021/10/14 00:53:11;;;;;;;3.78;1.63;;;;;;;;;;5012693;28;20565;-71
2021/10/14 00:55:39;;;;;;;6.70;1.70;;;;;;;;;;5012843;28;20495;-72
2021/10/14 00:58:06;;;;;;;6.80;1.63;;;;;;;;;;5011736;28;20038;-72
2021/10/14 01:00:34;;;;;;;4.82;1.70;;;;;;;;;;5013271;28;20062;-73
2021/10/14 01:03:02;;;;;;;9.65;1.83;;;;;;;;;;5012818;28;20472;-73
2021/10/14 01:05:30;;;;;;;6.28;1.73;;;;;;;;;;5015320;28;20049;-72
2021/10/14 01:07:57;;;;;;;5.82;1.55;;;;;;;;;;5016342;28;20128;-72
2021/10/14 01:10:25;;;;;;;5.03;1.75;;;;;;;;;;5015552;28;20042;-74
2021/10/14 01:12:52;;;;;;;5.75;2.08;;;;;;;;;;5016805;28;20034;-73
2021/10/14 01:15:25;;;;;;;9.40;2.03;;;;;;;;;;5015266;28;20046;-72
2021/10/14 01:17:54;;;;;;;5.20;2.40;;;;;;;;;;5016701;28;20046;-72
2021/10/14 01:20:22;;;;;;;2.42;1.60;;;;;;;;;;5016706;28;20121;-72
2021/10/14 01:22:49;;;;;;;6.60;1.90;;;;;;;;;;5016176;28;20100;-73
2021/10/14 01:25:16;;;;;;;7.18;1.88;;;;;;;;;;5015556;28;20505;-72
2021/10/14 01:27:44;;;;;;;3.97;1.30;;;;;;;;;;5016438;28;20514;-72
2021/10/14 01:30:12;;;;;;;4.25;1.60;;;;;;;;;;5016894;28;20076;-72
2021/10/14 01:32:39;;;;;;;5.65;1.80;;;;;;;;;;5016213;28;20050;-73
2021/10/14 01:35:07;;;;;;;5.90;1.60;;;;;;;;;;5016674;28;20149;-72
2021/10/14 01:37:35;;;;;;;2.67;1.42;;;;;;;;;;5016131;28;20406;-72
2021/10/14 01:40:03;;;;;;;5.75;1.40;;;;;;;;;;5016434;28;20061;-72
2021/10/14 01:42:31;;;;;;;7.20;1.40;;;;;;;;;;5016501;28;20081;-73
2021/10/14 01:45:00;;;;;;;4.57;1.50;;;;;;;;;;5015254;28;20046;-73
2021/10/14 01:47:34;;;;;;;2.63;1.25;;;;;;;;;;5016508;28;20056;-73
2021/10/14 01:50:03;;;;;;;8.27;1.88;;;;;;;;;;5016538;28;20160;-72
2021/10/14 01:52:30;;;;;;;3.78;1.73;;;;;;;;;;5015482;28;20050;-72
2021/10/14 01:54:58;;;;;;;5.18;1.55;;;;;;;;;;5014554;28;20042;-72
2021/10/14 01:57:25;;;;;;;7.85;1.60;;;;;;;;;;5016284;28;20073;-72
2021/10/14 01:59:53;;;;;;;3.10;1.35;;;;;;;;;;5016075;28;20044;-72
2021/10/14 02:02:21;;;;;;;3.83;1.13;;;;;;;;;;4998463;28;20092;-72
2021/10/14 02:04:48;;;;;;;3.83;1.10;;;;;;;;;;5015894;28;20045;-72
2021/10/14 02:07:16;;;;;;;6.53;1.60;;;;;;;;;;5014168;28;20395;-71
2021/10/14 02:09:43;;;;;;;3.33;1.40;;;;;;;;;;5016169;28;20422;-73
2021/10/14 02:12:11;;;;;;;4.90;1.40;;;;;;;;;;5015734;28;20038;-72
2021/10/14 02:14:38;;;;;;;5.05;1.40;;;;;;;;;;5015841;28;20549;-72
2021/10/14 02:17:05;;;;;;;3.78;1.38;;;;;;;;;;5013470;28;20049;-71
2021/10/14 02:19:33;;;;;;;2.40;1.20;;;;;;;;;;5014578;28;20433;-72
2021/10/14 02:22:00;;;;;;;4.35;2.00;;;;;;;;;;5015469;28;20041;-73
2021/10/14 02:24:28;;;;;;;4.05;1.35;;;;;;;;;;5015501;28;20057;-72
2021/10/14 02:26:55;;;;;;;5.18;1.40;;;;;;;;;;5014479;28;20057;-72
2021/10/14 02:29:23;;;;;;;5.68;1.55;;;;;;;;;;5014018;28;20108;-72
2021/10/14 02:31:50;;;;;;;2.85;1.40;;;;;;;;;;5014699;28;20414;-72
2021/10/14 02:34:18;;;;;;;3.53;1.50;;;;;;;;;;5015309;28;20046;-72
2021/10/14 02:36:45;;;;;;;1.17;1.00;;;;;;;;;;5013886;28;20485;-72
2021/10/14 02:39:12;;;;;;;2.85;1.60;;;;;;;;;;5015100;28;20042;-71
2021/10/14 02:41:40;;;;;;;3.00;1.40;;;;;;;;;;5015400;28;20046;-71
2021/10/14 02:44:07;;;;;;;2.85;1.30;;;;;;;;;;5013826;28;20081;-72
2021/10/14 02:46:35;;;;;;;4.97;1.35;;;;;;;;;;5014020;28;20038;-72
2021/10/14 02:49:03;;;;;;;2.75;1.40;;;;;;;;;;5013979;28;20396;-71
2021/10/14 02:51:30;;;;;;;2.83;1.50;;;;;;;;;;5014954;28;20041;-72
2021/10/14 02:53:58;;;;;;;6.35;1.88;;;;;;;;;;5014615;28;20046;-73
2021/10/14 02:56:25;;;;;;;5.07;1.55;;;;;;;;;;5014832;28;20048;-73
2021/10/14 02:58:53;;;;;;;4.43;1.23;;;;;;;;;;5015282;28;20407;-71
2021/10/14 03:01:20;;;;;;;4.40;1.27;;;;;;;;;;5014734;28;20125;-71
2021/10/14 03:03:48;;;;;;;9.07;1.10;;;;;;;;;;5013476;28;20054;-72
2021/10/14 03:06:15;;;;;;;6.80;1.20;;;;;;;;;;5014551;28;20050;-72
2021/10/14 03:08:43;;;;;;;5.65;1.17;;;;;;;;;;5014914;28;20475;-72
2021/10/14 03:11:10;;;;;;;5.65;1.00;;;;;;;;;;5015094;28;20483;-71
2021/10/14 03:13:38;;;;;;;2.28;1.05;;;;;;;;;;5014327;28;20042;-72
2021/10/14 03:16:05;;;;;;;3.20;1.10;;;;;;;;;;5014414;28;20048;-72
2021/10/14 03:18:34;;;;;;;4.75;1.20;;;;;;;;;;5013130;28;20049;-72
2021/10/14 03:21:02;;;;;;;3.30;1.20;;;;;;;;;;5013415;28;20044;-71
2021/10/14 03:23:29;;;;;;;2.50;1.08;;;;;;;;;;5014156;28;20041;-71
2021/10/14 03:25:57;;;;;;;7.40;2.20;;;;;;;;;;5014698;28;20049;-72
2021/10/14 03:28:24;;;;;;;3.10;1.30;;;;;;;;;;5014380;28;20120;-72
2021/10/14 03:30:55;;;;;;;2.85;1.20;;;;;;;;;;5013381;28;20065;-73
2021/10/14 03:33:23;;;;;;;2.33;1.77;;;;;;;;;;5013581;28;20435;-73
2021/10/14 03:35:50;;;;;;;4.68;1.70;;;;;;;;;;5014055;28;20046;-73
2021/10/14 03:38:18;;;;;;;6.57;1.27;;;;;;;;;;5014358;28;20423;-73
2021/10/14 03:40:45;;;;;;;5.85;1.20;;;;;;;;;;5014210;28;20038;-74
2021/10/14 03:43:12;;;;;;;4.43;1.40;;;;;;;;;;5013011;28;20053;-73
2021/10/14 03:45:41;;;;;;;3.20;1.05;;;;;;;;;;5014273;28;20467;-72
2021/10/14 03:48:08;;;;;;;1.80;1.15;;;;;;;;;;5013407;28;20049;-72
2021/10/14 03:50:35;;;;;;;2.97;1.00;;;;;;;;;;5014024;28;20041;-72
2021/10/14 03:53:03;;;;;;;3.67;1.20;;;;;;;;;;5013903;28;20419;-72
2021/10/14 03:55:31;;;;;;;2.25;0.90;;;;;;;;;;5014067;28;20041;-72
2021/10/14 03:57:58;;;;;;;1.80;1.00;;;;;;;;;;5013620;28;20044;-74
2021/10/14 04:00:25;;;;;;;1.77;0.77;;;;;;;;;;5013620;28;20471;-74
2021/10/14 04:02:53;;;;;;;2.55;1.05;;;;;;;;;;5013357;28;20050;-71
2021/10/14 04:05:21;;;;;;;2.13;0.85;;;;;;;;;;5013749;28;20459;-71
2021/10/14 04:07:48;;;;;;;1.45;0.70;;;;;;;;;;5014023;28;20050;-72
2021/10/14 04:10:15;;;;;;;0.90;0.75;;;;;;;;;;5014133;28;20057;-74
2021/10/14 04:12:43;;;;;;;1.13;0.70;;;;;;;;;;5013467;28;20068;-72
2021/10/14 04:15:12;;;;;;;2.78;0.73;;;;;;;;;;5013409;28;20069;-71
2021/10/14 04:17:39;;;;;;;1.13;0.88;;;;;;;;;;5013142;28;20034;-74
2021/10/14 04:20:08;;;;;;;2.40;1.02;;;;;;;;;;5012965;28;20050;-72
2021/10/14 04:22:35;;;;;;;0.50;0.50;;;;;;;;;;5013682;28;20434;-72
2021/10/14 04:25:04;;;;;;;4.20;1.38;;;;;;;;;;5013509;28;20566;-72
2021/10/14 04:27:34;;;;;;;1.30;1.10;;;;;;;;;;5013574;28;20484;-74
2021/10/14 04:30:01;;;;;;;0.60;0.60;;;;;;;;;;5013346;28;20395;-72
2021/10/14 04:32:29;;;;;;;0.60;0.60;;;;;;;;;;5012725;28;20050;-74
2021/10/14 04:34:56;;;;;;;1.08;0.70;;;;;;;;;;5012028;28;20042;-74
2021/10/14 04:37:24;;;;;;;2.35;0.70;;;;;;;;;;5013319;28;20042;-72
2021/10/14 04:39:51;;;;;;;1.00;0.30;;;;;;;;;;5012668;28;20046;-72
2021/10/14 04:42:19;;;;;;;1.08;0.65;;;;;;;;;;5011770;28;20053;-72
2021/10/14 04:44:46;;;;;;;0.22;0.22;;;;;;;;;;5013344;28;20045;-72
2021/10/14 04:47:18;;;;;;;1.38;0.50;;;;;;;;;;5012865;28;20042;-72
2021/10/14 04:49:46;;;;;;;4.00;0.20;;;;;;;;;;5013182;28;20050;-72
2021/10/14 04:52:13;;;;;;;0.70;0.70;;;;;;;;;;5013038;28;20069;-74
2021/10/14 04:54:41;;;;;;;2.92;0.63;;;;;;;;;;5013036;28;20138;-74
2021/10/14 04:57:08;;;;;;;4.47;0.80;;;;;;;;;;5012919;28;20406;-72
2021/10/14 04:59:36;;;;;;;1.45;0.80;;;;;;;;;;5012893;28;20042;-74
2021/10/14 05:02:04;;;;;;;1.30;0.60;;;;;;;;;;5012523;28;20117;-74
2021/10/14 05:04:32;;;;;;;1.98;0.70;;;;;;;;;;5013021;28;20129;-72
2021/10/14 05:06:59;;;;;;;4.05;1.10;;;;;;;;;;5013532;28;20042;-72
2021/10/14 05:09:27;;;;;;;1.45;0.55;;;;;;;;;;5013445;28;20044;-72
2021/10/14 05:11:54;;;;;;;1.30;0.88;;;;;;;;;;5011745;28;20074;-72
2021/10/14 05:14:22;;;;;;;1.88;0.75;;;;;;;;;;5012281;28;20053;-72
2021/10/14 05:16:49;;;;;;;1.23;0.75;;;;;;;;;;5012500;28;20050;-73
2021/10/14 05:19:16;;;;;;;4.68;1.08;;;;;;;;;;5012397;28;20042;-72
2021/10/14 05:21:44;;;;;;;2.78;0.80;;;;;;;;;;5012945;28;20454;-75
2021/10/14 05:24:11;;;;;;;3.47;0.60;;;;;;;;;;5012650;28;20049;-72
2021/10/14 05:26:40;;;;;;;3.53;0.95;;;;;;;;;;5010701;28;20064;-73
2021/10/14 05:29:08;;;;;;;1.40;0.88;;;;;;;;;;5008776;28;20527;-74
2021/10/14 05:31:36;;;;;;;2.70;1.15;;;;;;;;;;5010933;28;20419;-72
2021/10/14 05:34:04;;;;;;;4.18;1.20;;;;;;;;;;5009991;28;20042;-74
2021/10/14 05:36:32;;;;;;;3.17;1.25;;;;;;;;;;5011773;28;20388;-73
2021/10/14 05:38:59;;;;;;;4.65;1.45;;;;;;;;;;5011133;28;20052;-74
2021/10/14 05:41:27;;;;;;;1.77;1.25;;;;;;;;;;5011677;28;20048;-72
2021/10/14 05:43:54;;;;;;;2.03;1.40;;;;;;;;;;5012107;28;20048;-72
2021/10/14 05:46:22;;;;;;;2.20;1.20;;;;;;;;;;5011552;28;20472;-75
2021/10/14 05:48:49;;;;;;;2.63;0.93;;;;;;;;;;5011983;28;20080;-73
2021/10/14 05:51:17;;;;;;;4.88;1.33;;;;;;;;;;5010920;28;20129;-75
2021/10/14 05:53:45;;;;;;;3.75;1.60;;;;;;;;;;5015106;28;20399;-73
2021/10/14 05:56:13;;;;;;;3.17;1.23;;;;;;;;;;5015855;28;20042;-73
2021/10/14 05:58:40;;;;;;;4.47;1.15;;;;;;;;;;5015297;28;20042;-73
2021/10/14 06:01:08;;;;;;;2.00;1.38;;;;;;;;;;5014024;28;20056;-73
2021/10/14 06:03:38;;;;;;;3.33;1.73;;;;;;;;;;5013818;28;20140;-73
2021/10/14 06:06:06;;;;;;;1.65;1.08;;;;;;;;;;5015378;28;20045;-74
2021/10/14 06:08:33;;;;;;;2.72;1.10;;;;;;;;;;5015259;28;20125;-73
2021/10/14 06:11:01;;;;;;;3.97;1.48;;;;;;;;;;5015576;28;20507;-73
2021/10/14 06:13:28;;;;;;;1.45;0.95;;;;;;;;;;5015014;28;20043;-73
2021/10/14 06:15:56;;;;;;;3.30;1.70;;;;;;;;;;5015303;28;20037;-73
2021/10/14 06:18:24;;;;;;;5.05;1.92;;;;;;;;;;5015255;28;20125;-73
2021/10/14 06:20:51;;;;;;;3.00;1.38;;;;;;;;;;5014073;28;20586;-73
2021/10/14 06:23:22;;;;;;;5.07;1.52;;;;;;;;;;5014133;28;20042;-74
2021/10/14 06:25:49;;;;;;;3.15;1.63;;;;;;;;;;5015248;28;20052;-73
2021/10/14 06:28:17;;;;;;;4.63;2.20;;;;;;;;;;5014971;28;20372;-74
2021/10/14 06:30:44;;;;;;;4.18;1.92;;;;;;;;;;5015255;28;20128;-74
2021/10/14 06:33:12;;;;;;;5.45;2.38;;;;;;;;;;5014848;28;20599;-73
2021/10/14 06:35:40;;;;;;;5.78;2.15;;;;;;;;;;5015506;28;20084;-73
2021/10/14 06:38:08;;;;;;;3.95;1.58;;;;;;;;;;5015029;28;20121;-72
2021/10/14 06:40:35;;;;;;;3.97;2.10;;;;;;;;;;5014485;28;20125;-72
2021/10/14 06:43:03;;;;;;;3.17;2.13;;;;;;;;;;5014715;28;20053;-72
2021/10/14 06:45:30;;;;;;;1.55;1.27;;;;;;;;;;5014940;28;20128;-73
2021/10/14 06:47:58;;;;;;;1.10;1.00;;;;;;;;;;5014693;28;20074;-72
2021/10/14 06:50:26;;;;;;;2.55;1.10;;;;;;;;;;5014845;28;20088;-72
2021/10/14 06:52:53;;;;;;;2.13;1.38;;;;;;;;;;5014764;28;20044;-74
2021/10/14 06:55:21;;;;;;;4.30;1.80;;;;;;;;;;5015161;28;20124;-73
2021/10/14 06:57:48;;;;;;;3.40;1.65;;;;;;;;;;5014617;28;20125;-72
2021/10/14 07:00:19;;;;;;;3.20;1.50;;;;;;;;;;5014605;28;20403;-72
2021/10/14 07:02:47;;;;;;;2.97;1.85;;;;;;;;;;5012984;28;20052;-72
2021/10/14 07:05:14;;;;;;;2.15;1.60;;;;;;;;;;5013185;28;20042;-72
2021/10/14 07:07:42;;;;;;;5.18;2.55;;;;;;;;;;5014205;28;20370;-73
2021/10/14 07:10:10;;;;;;;8.57;4.45;;;;;;;;;;5014348;28;20045;-72
2021/10/14 07:12:39;;;;;;;6.35;3.13;;;;;;;;;;5014406;28;20129;-72
2021/10/14 07:15:07;;;;;;;2.78;2.20;;;;;;;;;;5014587;28;20124;-72
2021/10/14 07:17:35;;;;;;;6.00;2.10;;;;;;;;;;5014737;28;20038;-72
2021/10/14 07:20:03;;;;;;;3.20;1.98;;;;;;;;;;5014243;28;20462;-72
2021/10/14 07:22:32;;;;;;;6.70;2.40;;;;;;;;;;5012591;28;20046;-73
2021/10/14 07:25:00;;;;;;;2.85;2.40;;;;;;;;;;5013745;28;20045;-72
2021/10/14 07:27:27;;;;;;;1.95;1.65;;;;;;;;;;5013217;28;20050;-73
2021/10/14 07:29:55;;;;;;;3.28;1.60;;;;;;;;;;5012920;28;20096;-72
2021/10/14 07:32:23;;;;;;;1.77;1.50;;;;;;;;;;5013978;28;20503;-72
2021/10/14 07:34:50;;;;;;;2.53;1.17;;;;;;;;;;5012697;28;20042;-72
2021/10/14 07:37:20;;;;;;;2.25;1.48;;;;;;;;;;5014219;28;20045;-73
2021/10/14 07:39:48;;;;;;;2.20;2.10;;;;;;;;;;5013985;28;20390;-74
2021/10/14 07:42:16;;;;;;;2.55;1.63;;;;;;;;;;5013995;28;20056;-72
2021/10/14 07:44:43;;;;;;;1.60;1.10;;;;;;;;;;5014254;28;20042;-72
2021/10/14 07:47:12;;;;;;;2.33;0.93;;;;;;;;;;5014061;28;20480;-74
2021/10/14 07:49:40;;;;;;;2.10;0.70;;;;;;;;;;5013990;28;20513;-72
2021/10/14 07:52:07;;;;;;;1.08;0.82;;;;;;;;;;5014140;28;20541;-71
2021/10/14 07:54:35;;;;;;;0.50;0.50;;;;;;;;;;5013582;28;20041;-73
2021/10/14 07:57:02;;;;;;;1.67;0.93;;;;;;;;;;5013962;28;20038;-73
2021/10/14 07:59:30;;;;;;;1.45;1.08;;;;;;;;;;5012715;28;20053;-73
2021/10/14 08:01:57;;;;;;;1.33;0.85;;;;;;;;;;5013706;28;20037;-72
2021/10/14 08:04:25;;;;;;;1.50;0.73;;;;;;;;;;5013727;28;20487;-74
2021/10/14 08:06:52;;;;;;;2.75;1.00;;;;;;;;;;5013721;28;20056;-74
2021/10/14 08:09:20;;;;;;;0.57;0.50;;;;;;;;;;5013380;28;20042;-74
2021/10/14 08:11:48;;;;;;;1.00;0.95;;;;;;;;;;4995823;28;20398;-72
2021/10/14 08:14:15;;;;;;;1.00;1.00;;;;;;;;;;5012903;28;20046;-72
2021/10/14 08:16:43;;;;;;;0.63;0.63;;;;;;;;;;5013503;28;20040;-72
2021/10/14 08:19:11;;;;;;;2.65;0.80;;;;;;;;;;5012589;28;20045;-74
2021/10/14 08:21:38;;;;;;;1.08;1.00;;;;;;;;;;5013586;28;20049;-72
2021/10/14 08:24:06;;;;;;;2.13;0.65;;;;;;;;;;5012849;28;20056;-73
2021/10/14 08:26:33;;;;;;;0.95;0.75;;;;;;;;;;5013234;28;20046;-72
2021/10/14 08:29:01;;;;;;;0.98;0.88;;;;;;;;;;5013412;28;20042;-72
2021/10/14 08:31:28;;;;;;;0.43;0.43;;;;;;;;;;5115970;23;20136;-73
2021/10/14 08:33:56;;;;;;;0.70;0.70;;;;;;;;;;5050616;28;20099;-72
2021/10/14 08:36:23;;;;;;;0.68;0.68;;;;;;;;;;5051110;28;20043;-75
2021/10/14 08:38:52;;;;;;;1.85;1.42;;;;;;;;;;5052451;28;20047;-73
2021/10/14 08:41:20;;;;;;;1.63;0.88;;;;;;;;;;5052462;28;20119;-73
2021/10/14 08:43:48;;;;;;;0.65;0.65;;;;;;;;;;5052356;28;20401;-74
2021/10/14 08:46:17;;;;;;;0.60;0.60;;;;;;;;;;5052533;28;20053;-73
2021/10/14 08:48:45;;;;;;;2.15;0.70;;;;;;;;;;5052678;28;20532;-73
2021/10/14 08:51:12;;;;;;;2.63;0.85;;;;;;;;;;5052386;28;20045;-73
2021/10/14 08:53:40;;;;;;;5.50;1.58;;;;;;;;;;5050930;28;20047;-75
2021/10/14 08:56:07;;;;;;;18.75;1.98;;;;;;;;;;5052686;28;20033;-72
2021/10/14 08:58:35;;;;;;;14.48;1.80;;;;;;;;;;5052609;28;20037;-74
2021/10/14 09:01:14;;;;;;;2.10;0.80;;;;;;;;;;5052327;28;20049;-73
2021/10/14 09:03:45;;;;;;;4.03;1.05;;;;;;;;;;5052403;28;20193;-72
2021/10/14 09:06:14;;;;;;;1.38;0.77;;;;;;;;;;5051997;28;20076;-73
2021/10/14 09:08:42;;;;;;;0.50;0.50;;;;;;;;;;5052412;28;20041;-73
2021/10/14 09:11:14;;;;;;;0.90;0.47;;;;;;;;;;5052358;28;20041;-74
2021/10/14 09:13:46;;;;;;;4.65;1.25;;;;;;;;;;5052001;28;20497;-73
2021/10/14 09:16:33;;;;;;;1.17;0.40;;;;;;;;;;5052666;28;20041;-73
2021/10/14 09:19:13;;;;;;;1.13;0.70;;;;;;;;;;5052599;28;20044;-74
2021/10/14 09:21:42;;;;;;;0.75;0.68;;;;;;;;;;5052086;28;20044;-73
2021/10/14 09:24:28;;;;;;;1.60;0.50;;;;;;;;;;5051174;28;20045;-73
2021/10/14 09:26:56;;;;;;;0.60;0.60;;;;;;;;;;5055253;28;20128;-73
2021/10/14 09:29:28;;;;;;;0.75;0.75;;;;;;;;;;5056313;28;20128;-72
2021/10/14 09:31:58;;;;;;;0.50;0.50;;;;;;;;;;5054693;28;20148;-73
2021/10/14 09:34:35;;;;;;;0.73;0.60;;;;;;;;;;5054577;28;20059;-73
2021/10/14 09:37:04;;;;;;;0.75;0.75;;;;;;;;;;5054305;28;20043;-74
2021/10/14 09:39:33;;;;;;;2.72;1.13;;;;;;;;;;5055795;28;20033;-72
2021/10/14 09:42:00;;;;;;;1.73;0.90;;;;;;;;;;5054581;28;20760;-73
2021/10/14 09:44:50;;;;;;;0.73;0.73;;;;;;;;;;5056261;28;20071;-73
2021/10/14 09:47:18;;;;;;;1.25;1.00;;;;;;;;;;5055896;28;20406;-73
2021/10/14 09:49:45;;;;;;;1.67;0.88;;;;;;;;;;5055444;28;20036;-73
2021/10/14 09:52:12;;;;;;;1.20;1.10;;;;;;;;;;5055517;28;20481;-73
2021/10/14 09:54:40;;;;;;;0.70;0.70;;;;;;;;;;5055779;28;20041;-73
2021/10/14 09:57:08;;;;;;;1.73;0.90;;;;;;;;;;5055664;28;20501;-73
2021/10/14 09:59:36;;;;;;;0.65;0.50;;;;;;;;;;5055755;28;20033;-73
2021/10/14 10:02:04;;;;;;;1.70;1.27;;;;;;;;;;5055337;28;20045;-72
2021/10/14 10:04:32;;;;;;;1.58;1.10;;;;;;;;;;5054943;28;20067;-73
2021/10/14 10:07:00;;;;;;;1.42;1.20;;;;;;;;;;5055320;28;20051;-75
2021/10/14 10:09:36;;;;;;;1.05;0.90;;;;;;;;;;5055037;28;20056;-73
2021/10/14 10:12:05;;;;;;;1.10;1.00;;;;;;;;;;5055113;28;20144;-74
2021/10/14 10:14:33;;;;;;;1.20;1.10;;;;;;;;;;5054975;28;20048;-73
2021/10/14 10:17:11;;;;;;;1.95;0.90;;;;;;;;;;5054639;28;20051;-73
2021/10/14 10:19:46;;;;;;;0.82;0.82;;;;;;;;;;5053223;28;20501;-73
2021/10/14 10:22:33;;;;;;;2.90;0.90;;;;;;;;;;5054801;28;20120;-73
2021/10/14 10:25:19;;;;;;;0.73;0.73;;;;;;;;;;5036615;28;20051;-74
2021/10/14 10:27:47;;;;;;;1.23;0.95;;;;;;;;;;5054466;28;20076;-72
2021/10/14 10:30:31;;;;;;;1.35;1.00;;;;;;;;;;5051020;28;20040;-74
2021/10/14 10:32:59;;;;;;;0.82;0.82;;;;;;;;;;5053097;28;20060;-74
2021/10/14 10:35:41;;;;;;;1.65;1.00;;;;;;;;;;5054091;28;20045;-72
2021/10/14 10:38:14;;;;;;;1.80;1.20;;;;;;;;;;5053570;28;20129;-72
2021/10/14 10:40:43;;;;;;;1.30;1.20;;;;;;;;;;5054821;28;20037;-73
2021/10/14 10:43:12;;;;;;;1.10;1.00;;;;;;;;;;5054824;28;20398;-73
2021/10/14 10:45:49;;;;;;;3.10;2.80;;;;;;;;;;5054653;28;20033;-73
2021/10/14 10:48:21;;;;;;;1.95;1.27;;;;;;;;;;5054041;28;20575;-73
2021/10/14 10:50:50;;;;;;;1.30;1.20;;;;;;;;;;5054439;28;20087;-73
2021/10/14 10:53:36;;;;;;;1.27;1.00;;;;;;;;;;5054625;28;20481;-73
2021/10/14 10:56:04;;;;;;;1.40;1.02;;;;;;;;;;5054545;28;20264;-73
2021/10/14 10:58:31;;;;;;;2.75;1.20;;;;;;;;;;5054190;28;20043;-74
2021/10/14 11:01:00;;;;;;;4.90;1.48;;;;;;;;;;5054648;28;20079;-73
2021/10/14 11:03:28;;;;;;;2.10;1.02;;;;;;;;;;5053874;28;20061;-73
2021/10/14 11:06:00;;;;;;;1.10;1.00;;;;;;;;;;5054151;28;20045;-73
2021/10/14 11:08:32;;;;;;;1.92;1.40;;;;;;;;;;5054237;28;20037;-73
2021/10/14 11:10:59;;;;;;;1.60;1.40;;;;;;;;;;5054081;28;20045;-73
2021/10/14 11:13:27;;;;;;;1.70;1.42;;;;;;;;;;5054169;28;20052;-73
2021/10/14 11:16:01;;;;;;;4.15;1.60;;;;;;;;;;5053537;28;20063;-73
2021/10/14 11:18:31;;;;;;;1.95;1.60;;;;;;;;;;5053877;28;20524;-74
2021/10/14 11:20:59;;;;;;;4.25;1.80;;;;;;;;;;5054034;28;20103;-73
2021/10/14 11:23:29;;;;;;;2.90;1.77;;;;;;;;;;5053466;28;20049;-73
2021/10/14 11:26:00;;;;;;;7.18;2.17;;;;;;;;;;5053953;28;20064;-74
2021/10/14 11:28:28;;;;;;;2.20;1.95;;;;;;;;;;5053297;28;20446;-73
2021/10/14 11:31:01;;;;;;;2.55;1.50;;;;;;;;;;5053653;28;20055;-73
2021/10/14 11:33:36;;;;;;;3.30;2.50;;;;;;;;;;5053551;28;20049;-74
2021/10/14 11:36:07;;;;;;;1.90;1.70;;;;;;;;;;5053756;28;20125;-74
2021/10/14 11:38:34;;;;;;;2.70;1.60;;;;;;;;;;5053683;28;20041;-74
2021/10/14 11:41:02;;;;;;;2.50;1.77;;;;;;;;;;5053386;28;20128;-73
2021/10/14 11:43:31;;;;;;;5.25;2.17;;;;;;;;;;5053674;28;20126;-73
2021/10/14 11:45:59;;;;;;;1.73;1.60;;;;;;;;;;5053490;28;20041;-73
2021/10/14 11:48:31;;;;;;;1.70;1.60;;;;;;;;;;5052256;28;20067;-73
2021/10/14 11:50:59;;;;;;;;;;;;;;;;;;5053461;28;20045;-73
2021/10/14 11:53:28;;;;;;;2.47;1.42;;;;;;;;;;5053679;28;20015;-73
2021/10/14 11:56:00;;;;;;;1.92;1.70;;;;;;;;;;5053156;28;20037;-73
2021/10/14 11:58:27;;;;;;;2.20;2.00;;;;;;;;;;5053529;28;20128;-75
2021/10/14 12:00:57;;;;;;;2.05;1.70;;;;;;;;;;5052943;28;20041;-75
2021/10/14 12:03:25;;;;;;;1.98;1.73;;;;;;;;;;5052928;28;20045;-73
2021/10/14 12:05:53;;;;;;;1.50;1.40;;;;;;;;;;5052833;28;20068;-75
2021/10/14 12:08:21;;;;;;;2.33;1.88;;;;;;;;;;5052759;28;20052;-75
2021/10/14 12:10:54;;;;;;;1.67;1.58;;;;;;;;;;5051433;28;20045;-73
2021/10/14 12:13:26;;;;;;;2.92;1.58;;;;;;;;;;5051668;28;20060;-73
2021/10/14 12:16:10;;;;;;;2.50;1.90;;;;;;;;;;5051422;28;20037;-73
2021/10/14 12:18:39;;;;;;;1.77;1.65;;;;;;;;;;5052879;28;20040;-74
2021/10/14 12:21:25;;;;;;;6.72;1.40;;;;;;;;;;5051723;28;20112;-73
2021/10/14 12:24:06;;;;;;;1.25;1.15;;;;;;;;;;5053131;28;20470;-74
2021/10/14 12:26:45;;;;;;;1.65;1.55;;;;;;;;;;5051863;28;20033;-74
2021/10/14 12:29:27;;;;;;;1.95;1.70;;;;;;;;;;5052583;28;20645;-73
2021/10/14 12:32:04;;;;;;;13.57;2.40;;;;;;;;;;5052641;28;20118;-74
2021/10/14 12:34:39;;;;;;;1.95;1.42;;;;;;;;;;5051878;28;20458;-73
2021/10/14 12:37:08;;;;;;;1.77;1.48;;;;;;;;;;5051515;28;20118;-74
2021/10/14 12:39:35;;;;;;;1.35;1.27;;;;;;;;;;5052761;28;20039;-73
2021/10/14 12:42:03;;;;;;;2.30;1.20;;;;;;;;;;5052575;28;20045;-73
2021/10/14 12:47:06;;;;;;;;;;;;;;;;;;5053273;28;20098;-74
2021/10/14 12:50:00;;;;;;;1.88;1.77;;;;;;;;;;5051448;28;19921;-73
2021/10/14 12:52:27;;;;;;;1.40;1.30;;;;;;;;;;5052675;28;20260;-73
2021/10/14 12:55:08;;;;;;;1.75;1.65;;;;;;;;;;5052634;28;20454;-75
2021/10/14 12:57:35;;;;;;;1.50;1.40;;;;;;;;;;5052415;28;20037;-74
2021/10/14 13:00:04;;;;;;;4.63;1.80;;;;;;;;;;5046545;28;20475;-74
2021/10/14 13:02:32;;;;;;;1.75;1.65;;;;;;;;;;5053810;28;20118;-75
2021/10/14 13:05:01;;;;;;;3.97;1.90;;;;;;;;;;5053830;28;20037;-74
2021/10/14 13:07:29;;;;;;;4.55;2.00;;;;;;;;;;5053269;28;20502;-75
2021/10/14 13:09:58;;;;;;;2.50;2.00;;;;;;;;;;5052435;28;20523;-74
2021/10/14 13:12:25;;;;;;;2.88;1.75;;;;;;;;;;5052703;28;20045;-74
2021/10/14 13:14:53;;;;;;;3.00;1.92;;;;;;;;;;5052728;28;20053;-74
2021/10/14 13:17:20;;;;;;;3.10;1.80;;;;;;;;;;5053922;28;20045;-73
2021/10/14 13:19:48;;;;;;;1.90;1.80;;;;;;;;;;5054251;28;20049;-73
2021/10/14 13:22:16;;;;;;;2.63;2.20;;;;;;;;;;5051973;28;20037;-73
2021/10/14 13:24:44;;;;;;;4.28;3.22;;;;;;;;;;5053477;28;20051;-74
2021/10/14 13:27:11;;;;;;;6.38;3.47;;;;;;;;;;5051796;28;20076;-75
2021/10/14 13:29:39;;;;;;;5.65;2.72;;;;;;;;;;5053532;28;20060;-75
2021/10/14 13:32:07;;;;;;;7.22;3.92;;;;;;;;;;5053063;28;20049;-74
2021/10/14 13:34:35;;;;;;;3.40;2.67;;;;;;;;;;5035108;28;20103;-75
2021/10/14 13:37:10;;;;;;;2.88;2.20;;;;;;;;;;5035424;28;20449;-73
2021/10/14 13:39:38;;;;;;;3.15;2.30;;;;;;;;;;5053455;28;20080;-75
2021/10/14 13:42:07;;;;;;;2.45;2.00;;;;;;;;;;5051950;28;20033;-74
2021/10/14 13:44:34;;;;;;;2.90;2.17;;;;;;;;;;5044563;28;20569;-74
2021/10/14 13:47:03;;;;;;;3.10;2.10;;;;;;;;;;5035809;28;20487;-74
2021/10/14 13:49:34;;;;;;;5.05;2.58;;;;;;;;;;5035559;28;20042;-75
2021/10/14 13:52:07;;;;;;;;;;;;;;;;;;5036524;28;20037;-75
2021/10/14 13:54:35;;;;;;;7.30;4.53;;;;;;;;;;5035058;28;20327;-75
2021/10/14 13:57:03;;;;;;;5.43;3.25;;;;;;;;;;5035145;28;20044;-74
2021/10/14 13:59:30;;;;;;;8.77;3.15;;;;;;;;;;5035814;28;20038;-74
2021/10/14 14:02:02;;;;;;;3.95;3.15;;;;;;;;;;5035777;28;20099;-75
2021/10/14 14:04:30;;;;;;;3.60;2.63;;;;;;;;;;5035708;28;20140;-76
2021/10/14 14:06:58;;;;;;;3.03;2.58;;;;;;;;;;5035813;28;20041;-74
2021/10/14 14:09:27;;;;;;;4.20;2.65;;;;;;;;;;5035859;28;20081;-76
2021/10/14 14:11:55;;;;;;;5.47;3.35;;;;;;;;;;5032830;28;20434;-75
2021/10/14 14:14:22;;;;;;;6.55;3.50;;;;;;;;;;5033361;28;20038;-76
2021/10/14 14:16:51;;;;;;;2.88;2.40;;;;;;;;;;5033004;28;20477;-76
2021/10/14 14:19:18;;;;;;;3.55;2.50;;;;;;;;;;5035274;28;20522;-74
2021/10/14 14:21:51;;;;;;;3.37;2.33;;;;;;;;;;5054556;28;20047;-74
2021/10/14 14:24:20;;;;;;;3.10;2.00;;;;;;;;;;5053193;28;20063;-75
2021/10/14 14:26:49;;;;;;;3.40;1.88;;;;;;;;;;5052417;28;20102;-75
2021/10/14 14:29:16;;;;;;;1.50;1.40;;;;;;;;;;5054195;28;20045;-74
2021/10/14 14:31:44;;;;;;;2.60;1.75;;;;;;;;;;5052751;28;20049;-74
2021/10/14 14:34:11;;;;;;;2.78;2.25;;;;;;;;;;5052777;28;20052;-74
2021/10/14 14:36:51;;;;;;;5.72;2.67;;;;;;;;;;5054004;28;20033;-75
2021/10/14 14:39:18;;;;;;;3.55;2.50;;;;;;;;;;5054278;28;20091;-74
2021/10/14 14:41:46;;;;;;;2.78;2.03;;;;;;;;;;5054180;28;20414;-75
2021/10/14 14:44:14;;;;;;;2.90;2.45;;;;;;;;;;5035136;28;20052;-74
2021/10/14 14:46:41;;;;;;;4.72;2.70;;;;;;;;;;5053560;28;20076;-74
2021/10/14 14:49:14;;;;;;;3.95;2.47;;;;;;;;;;5053331;28;20051;-74
2021/10/14 14:51:42;;;;;;;6.40;3.30;;;;;;;;;;5052767;28;20041;-76
2021/10/14 14:54:09;;;;;;;7.03;3.70;;;;;;;;;;5052530;28;20044;-74
2021/10/14 14:56:37;;;;;;;4.93;3.90;;;;;;;;;;5053368;28;20505;-74